createdAt,value
2023-01-13T00:00:34.322Z,6.36
2023-01-13T00:02:37.684Z,6.33
2023-01-13T00:04:41.112Z,6.30
2023-01-13T00:06:44.406Z,6.25
2023-01-13T00:08:50.905Z,6.24
2023-01-13T00:10:54.174Z,6.22
2023-01-13T00:12:57.570Z,6.20
2023-01-13T00:15:00.815Z,6.19
2023-01-13T00:17:05.229Z,6.19
2023-01-13T00:19:08.321Z,6.18
2023-01-13T00:21:13.087Z,6.17
2023-01-13T00:23:16.409Z,6.18
2023-01-13T00:25:21.061Z,6.15
2023-01-13T00:27:25.516Z,6.13
2023-01-13T00:29:28.706Z,6.09
2023-01-13T00:31:32.227Z,6.07
2023-01-13T00:33:35.634Z,6.05
2023-01-13T00:35:38.850Z,6.04
2023-01-13T00:37:42.375Z,6.03
2023-01-13T00:39:46.063Z,6.03
2023-01-13T00:42:08.009Z,5.98
2023-01-13T00:44:11.347Z,5.96
2023-01-13T00:46:15.992Z,5.93
2023-01-13T00:48:19.280Z,5.92
2023-01-13T00:50:22.501Z,5.92
2023-01-13T00:52:25.955Z,5.89
2023-01-13T00:54:29.024Z,5.87
2023-01-13T00:56:40.121Z,5.84
2023-01-13T00:58:46.084Z,5.84
2023-01-13T01:00:49.005Z,5.83
2023-01-13T01:02:52.411Z,5.83
2023-01-13T01:04:55.697Z,5.83
2023-01-13T01:06:59.180Z,5.84
2023-01-13T01:09:02.352Z,5.82
2023-01-13T01:11:06.317Z,5.82
2023-01-13T01:13:11.930Z,5.82
2023-01-13T01:15:16.555Z,5.83
2023-01-13T01:17:19.780Z,5.84
2023-01-13T01:19:24.016Z,5.82
2023-01-13T01:21:28.143Z,5.82
2023-01-13T01:23:31.334Z,5.83
2023-01-13T01:25:34.486Z,5.83
2023-01-13T01:27:37.736Z,5.86
2023-01-13T01:29:41.182Z,5.87
2023-01-13T01:31:46.160Z,5.90
2023-01-13T01:33:49.629Z,5.91
2023-01-13T01:35:52.981Z,5.92
2023-01-13T01:37:56.187Z,5.91
2023-01-13T01:39:59.398Z,5.96
2023-01-13T01:42:20.106Z,6.00
2023-01-13T01:44:43.851Z,6.07
2023-01-13T01:46:48.674Z,6.11
2023-01-13T01:48:51.850Z,6.13
2023-01-13T01:50:55.771Z,6.16
2023-01-13T01:53:01.730Z,6.16
2023-01-13T01:55:06.528Z,6.17
2023-01-13T01:57:12.224Z,6.16
2023-01-13T01:59:15.755Z,6.15
2023-01-13T02:01:19.537Z,6.14
2023-01-13T02:03:24.509Z,6.15
2023-01-13T02:05:28.004Z,6.14
2023-01-13T02:07:32.851Z,6.14
2023-01-13T02:09:36.646Z,6.13
2023-01-13T02:12:08.510Z,6.12
2023-01-13T02:14:11.848Z,6.12
2023-01-13T02:16:18.455Z,6.12
2023-01-13T02:18:44.708Z,6.13
2023-01-13T02:21:02.774Z,6.13
2023-01-13T02:23:50.209Z,6.14
2023-01-13T02:26:03.075Z,6.14
2023-01-13T02:28:28.165Z,6.15
2023-01-13T02:30:56.756Z,6.13
2023-01-13T02:33:05.100Z,6.13
2023-01-13T02:35:09.634Z,6.14
2023-01-13T02:37:16.298Z,6.13
2023-01-13T02:39:24.511Z,6.13
2023-01-13T02:41:47.928Z,6.16
2023-01-13T02:44:10.744Z,6.15
2023-01-13T02:46:19.038Z,6.16
2023-01-13T02:48:24.368Z,6.16
2023-01-13T02:50:30.608Z,6.15
2023-01-13T02:52:37.403Z,6.12
2023-01-13T02:54:42.875Z,6.10
2023-01-13T02:56:49.109Z,6.10
2023-01-13T02:58:52.703Z,6.06
2023-01-13T03:00:56.174Z,6.06
2023-01-13T03:03:00.948Z,6.03
2023-01-13T03:05:04.210Z,6.01
2023-01-13T03:07:13.812Z,6.02
2023-01-13T03:09:21.211Z,6.03
2023-01-13T03:11:27.224Z,6.04
2023-01-13T03:13:46.472Z,6.04
2023-01-13T03:15:55.573Z,6.07
2023-01-13T03:18:03.396Z,6.08
2023-01-13T03:20:08.312Z,6.09
2023-01-13T03:22:17.152Z,6.10
2023-01-13T03:24:23.228Z,6.09
2023-01-13T03:26:29.884Z,6.09
2023-01-13T03:28:35.003Z,6.08
2023-01-13T03:30:42.206Z,6.11
2023-01-13T03:32:47.298Z,6.11
2023-01-13T03:34:53.016Z,6.11
2023-01-13T03:36:57.187Z,6.10
2023-01-13T03:39:02.862Z,6.10
2023-01-13T03:41:08.701Z,6.12
2023-01-13T03:43:30.787Z,6.15
2023-01-13T03:45:35.049Z,6.18
2023-01-13T03:47:41.283Z,6.20
2023-01-13T03:49:47.150Z,6.22
2023-01-13T03:51:56.603Z,6.25
2023-01-13T03:54:01.990Z,6.27
2023-01-13T03:56:09.117Z,6.29
2023-01-13T03:58:15.061Z,6.30
2023-01-13T04:00:18.398Z,6.29
2023-01-13T04:02:24.716Z,6.29
2023-01-13T04:04:31.579Z,6.29
2023-01-13T04:06:39.421Z,6.28
2023-01-13T04:08:49.832Z,6.28
2023-01-13T04:10:54.695Z,6.24
2023-01-13T04:13:02.868Z,6.22
2023-01-13T04:15:06.418Z,6.18
2023-01-13T04:17:09.363Z,6.15
2023-01-13T04:19:12.352Z,6.15
2023-01-13T04:21:15.316Z,6.13
2023-01-13T04:23:18.852Z,6.10
2023-01-13T04:25:23.149Z,6.09
2023-01-13T04:27:26.115Z,6.09
2023-01-13T04:29:29.122Z,6.07
2023-01-13T04:31:32.254Z,6.07
2023-01-13T04:33:35.401Z,6.08
2023-01-13T04:35:38.768Z,6.05
2023-01-13T04:37:41.988Z,6.05
2023-01-13T04:39:46.768Z,6.04
2023-01-13T04:42:00.014Z,6.03
2023-01-13T04:44:02.950Z,6.03
2023-01-13T04:46:06.107Z,5.99
2023-01-13T04:48:09.151Z,5.98
2023-01-13T04:50:13.029Z,5.99
2023-01-13T04:52:16.048Z,5.97
2023-01-13T04:54:18.981Z,5.96
2023-01-13T04:56:21.922Z,5.96
2023-01-13T04:58:26.518Z,5.96
2023-01-13T05:00:29.428Z,5.96
2023-01-13T05:02:32.481Z,5.99
2023-01-13T05:04:35.459Z,6.02
2023-01-13T05:06:38.457Z,6.03
2023-01-13T05:08:41.424Z,6.04
2023-01-13T05:10:44.451Z,6.03
2023-01-13T05:13:05.132Z,6.03
2023-01-13T05:15:28.619Z,6.02
2023-01-13T05:17:32.827Z,6.01
2023-01-13T05:19:39.197Z,6.01
2023-01-13T05:22:00.041Z,6.01
2023-01-13T05:24:20.148Z,6.01
2023-01-13T05:26:24.146Z,5.99
2023-01-13T05:28:27.133Z,5.99
2023-01-13T05:30:32.609Z,6.00
2023-01-13T05:32:35.660Z,6.00
2023-01-13T05:34:38.593Z,6.02
2023-01-13T05:36:41.611Z,6.02
2023-01-13T05:38:44.526Z,6.01
2023-01-13T05:41:05.103Z,6.01
2023-01-13T05:43:21.256Z,6.00
2023-01-13T05:45:24.469Z,5.99
2023-01-13T05:47:28.987Z,5.99
2023-01-13T05:49:31.950Z,5.97
2023-01-13T05:51:34.886Z,5.95
2023-01-13T05:53:37.981Z,5.93
2023-01-13T05:55:41.415Z,5.95
2023-01-13T05:57:44.780Z,5.94
2023-01-13T05:59:47.705Z,5.95
2023-01-13T06:01:50.723Z,5.95
2023-01-13T06:03:55.011Z,5.94
2023-01-13T06:06:01.899Z,5.96
2023-01-13T06:08:06.151Z,5.98
2023-01-13T06:10:10.201Z,5.99
2023-01-13T06:12:13.605Z,6.00
2023-01-13T06:14:16.605Z,5.99
2023-01-13T06:16:19.578Z,5.97
2023-01-13T06:18:22.825Z,5.96
2023-01-13T06:20:27.157Z,5.93
2023-01-13T06:22:32.998Z,5.93
2023-01-13T06:24:35.980Z,5.91
2023-01-13T06:26:40.444Z,5.90
2023-01-13T06:28:43.382Z,5.88
2023-01-13T06:30:48.316Z,5.88
2023-01-13T06:32:53.402Z,5.87
2023-01-13T06:34:57.678Z,5.87
2023-01-13T06:37:02.711Z,5.86
2023-01-13T06:39:05.942Z,5.85
2023-01-13T06:41:09.368Z,5.86
2023-01-13T06:43:17.748Z,5.85
2023-01-13T06:45:21.076Z,5.86
2023-01-13T06:47:24.082Z,5.87
2023-01-13T06:49:27.039Z,5.89
2023-01-13T06:51:30.189Z,5.90
2023-01-13T06:53:34.606Z,5.92
2023-01-13T06:55:37.566Z,5.93
2023-01-13T06:57:48.548Z,5.94
2023-01-13T06:59:51.548Z,5.92
2023-01-13T07:01:54.679Z,5.92
2023-01-13T07:03:58.297Z,5.93
2023-01-13T07:06:02.358Z,5.93
2023-01-13T07:08:05.531Z,5.92
2023-01-13T07:10:13.127Z,5.91
2023-01-13T07:12:16.042Z,5.91
2023-01-13T07:14:36.337Z,5.89
2023-01-13T07:16:39.388Z,5.89
2023-01-13T07:18:42.504Z,5.89
2023-01-13T07:20:45.482Z,5.89
2023-01-13T07:22:54.692Z,5.90
2023-01-13T07:24:58.150Z,5.91
2023-01-13T07:27:02.606Z,5.91
2023-01-13T07:29:06.428Z,5.92
2023-01-13T07:31:15.313Z,5.92
2023-01-13T07:33:18.721Z,5.92
2023-01-13T07:35:23.578Z,5.92
2023-01-13T07:37:26.530Z,5.93
2023-01-13T07:39:29.516Z,5.95
2023-01-13T07:41:49.954Z,5.98
2023-01-13T07:43:54.376Z,5.99
2023-01-13T07:45:58.617Z,6.01
2023-01-13T07:48:01.776Z,6.00
2023-01-13T07:50:05.149Z,5.99
2023-01-13T07:52:09.025Z,5.96
2023-01-13T07:54:12.067Z,5.96
2023-01-13T07:56:15.140Z,5.93
2023-01-13T07:58:18.167Z,5.92
2023-01-13T08:00:23.465Z,5.90
2023-01-13T08:02:26.697Z,5.90
2023-01-13T08:04:29.934Z,5.88
2023-01-13T08:06:32.851Z,5.87
2023-01-13T08:08:35.880Z,5.88
2023-01-13T08:10:38.911Z,5.90
2023-01-13T08:12:59.027Z,5.92
2023-01-13T08:15:02.106Z,5.93
2023-01-13T08:17:06.482Z,5.93
2023-01-13T08:19:09.468Z,5.94
2023-01-13T08:21:13.434Z,5.93
2023-01-13T08:23:16.468Z,5.91
2023-01-13T08:25:19.499Z,5.92
2023-01-13T08:27:22.438Z,5.91
2023-01-13T08:29:25.416Z,5.92
2023-01-13T08:31:28.422Z,5.90
2023-01-13T08:33:33.140Z,5.89
2023-01-13T08:35:37.324Z,5.89
2023-01-13T08:37:40.603Z,5.90
2023-01-13T08:39:43.928Z,5.89
2023-01-13T08:41:59.639Z,5.89
2023-01-13T08:44:03.419Z,5.90
2023-01-13T08:46:06.739Z,5.91
2023-01-13T08:48:10.015Z,5.92
2023-01-13T08:50:15.078Z,5.93
2023-01-13T08:52:18.418Z,5.94
2023-01-13T08:54:21.668Z,5.95
2023-01-13T08:56:25.084Z,5.95
2023-01-13T08:58:28.247Z,5.95
2023-01-13T09:00:31.491Z,5.95
2023-01-13T09:02:34.752Z,5.96
2023-01-13T09:04:38.102Z,5.95
2023-01-13T09:06:42.853Z,5.95
2023-01-13T09:08:46.228Z,5.95
2023-01-13T09:10:49.535Z,5.95
2023-01-13T09:13:10.149Z,5.95
2023-01-13T09:15:14.176Z,5.93
2023-01-13T09:17:17.356Z,5.93
2023-01-13T09:19:20.802Z,5.94
2023-01-13T09:21:24.328Z,5.93
2023-01-13T09:23:28.874Z,5.92
2023-01-13T09:25:32.172Z,5.93
2023-01-13T09:27:35.379Z,5.93
2023-01-13T09:29:38.573Z,5.92
2023-01-13T09:31:44.013Z,5.95
2023-01-13T09:34:04.851Z,5.93
2023-01-13T09:36:08.619Z,5.95
2023-01-13T09:38:11.954Z,5.96
2023-01-13T09:40:18.707Z,5.96
2023-01-13T09:42:42.788Z,5.99
2023-01-13T09:44:49.558Z,6.00
2023-01-13T09:46:54.218Z,6.01
2023-01-13T09:48:58.983Z,6.04
2023-01-13T09:51:06.398Z,6.05
2023-01-13T09:53:15.048Z,6.07
2023-01-13T09:55:20.939Z,6.08
2023-01-13T09:57:24.308Z,6.10
2023-01-13T09:59:28.848Z,6.10
2023-01-13T10:01:36.810Z,6.10
2023-01-13T10:03:40.128Z,6.13
2023-01-13T10:05:47.086Z,6.15
2023-01-13T10:07:52.447Z,6.15
2023-01-13T10:09:56.831Z,6.16
2023-01-13T10:12:19.743Z,6.18
2023-01-13T10:14:28.136Z,6.21
2023-01-13T10:16:41.232Z,6.25
2023-01-13T10:18:51.831Z,6.28
2023-01-13T10:20:58.646Z,6.34
2023-01-13T10:23:10.420Z,6.35
2023-01-13T10:25:26.695Z,6.37
2023-01-13T10:27:34.684Z,6.37
2023-01-13T10:29:38.207Z,6.38
2023-01-13T10:31:41.362Z,6.43
2023-01-13T10:33:44.646Z,6.47
2023-01-13T10:35:51.764Z,6.51
2023-01-13T10:37:58.399Z,6.55
2023-01-13T10:40:03.129Z,6.60
2023-01-13T10:42:07.497Z,6.65
2023-01-13T10:44:16.911Z,6.70
2023-01-13T10:46:20.955Z,6.71
2023-01-13T10:48:24.334Z,6.75
2023-01-13T10:50:29.941Z,6.78
2023-01-13T10:52:36.256Z,6.81
2023-01-13T10:54:51.957Z,6.84
2023-01-13T10:57:16.042Z,6.85
2023-01-13T10:59:24.284Z,7.15
2023-01-13T11:01:30.708Z,7.15
2023-01-13T11:03:41.868Z,7.14
2023-01-13T11:05:54.590Z,7.13
2023-01-13T11:07:58.187Z,7.13
2023-01-13T11:10:16.096Z,7.13
2023-01-13T11:12:32.632Z,7.12
2023-01-13T11:14:41.710Z,7.13
2023-01-13T11:16:53.812Z,7.09
2023-01-13T11:19:12.353Z,7.08
2023-01-13T11:21:23.611Z,7.08
2023-01-13T11:23:33.503Z,7.08
2023-01-13T11:25:43.187Z,7.09
2023-01-13T11:27:52.585Z,7.11
2023-01-13T11:30:10.091Z,7.13
2023-01-13T11:32:19.455Z,7.13
2023-01-13T11:34:31.755Z,7.13
2023-01-13T11:36:40.195Z,7.15
2023-01-13T11:38:48.708Z,7.16
2023-01-13T11:40:52.588Z,7.16
2023-01-13T11:43:04.068Z,7.16
2023-01-13T11:45:19.999Z,7.15
2023-01-13T11:47:27.480Z,7.16
2023-01-13T11:49:34.159Z,7.16
2023-01-13T11:51:44.927Z,7.16
2023-01-13T11:54:02.136Z,7.17
2023-01-13T11:56:24.734Z,7.18
2023-01-13T11:58:51.112Z,7.19
2023-01-13T12:01:22.939Z,7.18
2023-01-13T12:03:32.439Z,7.21
2023-01-13T12:05:38.942Z,7.21
2023-01-13T12:07:51.553Z,7.21
2023-01-13T12:10:05.244Z,7.22
2023-01-13T12:12:23.438Z,7.24
2023-01-13T12:14:39.228Z,7.25
2023-01-13T12:16:49.170Z,7.27
2023-01-13T12:19:11.792Z,7.29
2023-01-13T12:21:21.164Z,7.31
2023-01-13T12:23:31.614Z,7.32
2023-01-13T12:25:40.267Z,7.34
2023-01-13T12:27:49.314Z,7.37
2023-01-13T12:29:59.784Z,7.39
2023-01-13T12:32:08.337Z,7.41
2023-01-13T12:34:26.914Z,7.45
2023-01-13T12:36:39.930Z,7.47
2023-01-13T12:38:50.049Z,7.48
2023-01-13T12:41:01.554Z,7.49
2023-01-13T12:43:34.249Z,7.53
2023-01-13T12:45:38.073Z,7.53
2023-01-13T12:47:45.722Z,7.55
2023-01-13T12:49:49.259Z,7.57
2023-01-13T12:52:18.558Z,7.59
2023-01-13T12:54:49.966Z,7.61
2023-01-13T12:56:54.923Z,7.62
2023-01-13T12:59:48.731Z,7.63
2023-01-13T13:01:53.686Z,7.62
2023-01-13T13:04:11.448Z,7.65
2023-01-13T13:06:20.728Z,7.65
2023-01-13T13:08:32.478Z,7.63
2023-01-13T13:10:40.307Z,7.61
2023-01-13T13:13:16.652Z,7.64
2023-01-13T13:15:22.695Z,7.65
2023-01-13T13:17:46.563Z,7.65
2023-01-13T13:19:51.635Z,7.66
2023-01-13T13:22:46.817Z,7.68
2023-01-13T13:25:22.578Z,7.68
2023-01-13T13:27:30.185Z,7.68
2023-01-13T13:29:51.382Z,7.68
2023-01-13T13:32:28.740Z,7.69
2023-01-13T13:34:37.215Z,7.71
2023-01-13T13:36:55.587Z,7.72
2023-01-13T13:39:29.115Z,7.73
2023-01-13T13:41:55.384Z,7.76
2023-01-13T13:44:34.186Z,7.80
2023-01-13T13:46:50.667Z,7.84
2023-01-13T13:48:56.220Z,7.88
2023-01-13T13:51:02.753Z,7.90
2023-01-13T13:53:09.505Z,7.91
2023-01-13T13:55:19.309Z,7.91
2023-01-13T13:57:27.899Z,7.93
2023-01-13T13:59:33.777Z,7.93
2023-01-13T14:01:40.339Z,7.94
2023-01-13T14:03:44.258Z,7.96
2023-01-13T14:05:55.993Z,7.97
2023-01-13T14:08:04.372Z,8.01
2023-01-13T14:10:18.123Z,8.04
2023-01-13T14:12:23.986Z,8.06
2023-01-13T14:14:28.409Z,8.07
2023-01-13T14:16:33.623Z,8.08
2023-01-13T14:18:47.332Z,8.08
2023-01-13T14:20:55.343Z,8.08
2023-01-13T14:23:01.907Z,8.07
2023-01-13T14:25:33.018Z,8.05
2023-01-13T14:27:44.950Z,8.03
2023-01-13T14:29:48.945Z,7.99
2023-01-13T14:31:56.095Z,7.96
2023-01-13T14:34:02.552Z,7.93
2023-01-13T14:36:16.071Z,7.89
2023-01-13T14:38:19.856Z,7.86
2023-01-13T14:40:47.040Z,7.80
2023-01-13T14:42:58.684Z,7.75
2023-01-13T14:45:03.712Z,7.70
2023-01-13T14:47:23.852Z,7.66
2023-01-13T14:49:32.138Z,7.61
2023-01-13T14:51:35.591Z,7.57
2023-01-13T14:53:43.464Z,7.54
2023-01-13T14:55:48.485Z,7.49
2023-01-13T14:57:51.910Z,7.45
2023-01-13T15:00:06.676Z,7.43
2023-01-13T15:02:52.160Z,7.41
2023-01-13T15:04:58.817Z,7.37
2023-01-13T15:07:05.775Z,7.35
2023-01-13T15:09:13.998Z,7.34
2023-01-13T15:11:25.977Z,7.33
2023-01-13T15:13:37.561Z,7.32
2023-01-13T15:15:41.482Z,7.31
2023-01-13T15:17:47.217Z,7.31
2023-01-13T15:19:50.847Z,7.31
2023-01-13T15:21:54.313Z,7.30
2023-01-13T15:23:57.922Z,7.29
2023-01-13T15:26:02.499Z,7.28
2023-01-13T15:28:08.665Z,7.27
2023-01-13T15:30:16.241Z,7.28
2023-01-13T15:32:21.604Z,7.26
2023-01-13T15:34:25.154Z,7.27
2023-01-13T15:36:30.740Z,7.26
2023-01-13T15:38:34.662Z,7.24
2023-01-13T15:40:38.636Z,7.24
2023-01-13T15:42:59.610Z,7.24
2023-01-13T15:45:22.775Z,7.21
2023-01-13T15:47:28.961Z,7.19
2023-01-13T15:49:36.794Z,7.17
2023-01-13T15:51:41.321Z,7.17
2023-01-13T15:53:45.015Z,7.15
2023-01-13T15:55:53.368Z,7.13
2023-01-13T15:57:57.439Z,7.11
2023-01-13T16:00:08.299Z,7.09
2023-01-13T16:02:16.191Z,7.08
2023-01-13T16:04:19.803Z,7.05
2023-01-13T16:06:29.375Z,7.04
2023-01-13T16:08:34.436Z,7.01
2023-01-13T16:10:38.248Z,7.00
2023-01-13T16:12:41.960Z,6.97
2023-01-13T16:14:45.649Z,6.95
2023-01-13T16:16:52.012Z,6.94
2023-01-13T16:18:56.089Z,6.91
2023-01-13T16:20:59.665Z,6.91
2023-01-13T16:23:03.108Z,6.90
2023-01-13T16:25:08.070Z,6.89
2023-01-13T16:27:16.083Z,6.87
2023-01-13T16:29:19.735Z,6.87
2023-01-13T16:31:27.246Z,6.87
2023-01-13T16:33:32.123Z,6.85
2023-01-13T16:35:35.831Z,6.84
2023-01-13T16:38:00.026Z,6.83
2023-01-13T16:40:03.826Z,6.84
2023-01-13T16:42:07.393Z,6.84
2023-01-13T16:44:11.020Z,6.82
2023-01-13T16:46:23.307Z,6.83
2023-01-13T16:48:27.075Z,6.83
2023-01-13T16:50:36.978Z,6.83
2023-01-13T16:52:40.627Z,6.83
2023-01-13T16:54:44.253Z,6.82
2023-01-13T16:56:47.853Z,6.83
2023-01-13T16:58:52.038Z,6.83
2023-01-13T17:00:55.620Z,6.86
2023-01-13T17:03:02.191Z,6.86
2023-01-13T17:05:06.430Z,6.87
2023-01-13T17:07:17.162Z,6.87
2023-01-13T17:09:23.492Z,6.89
2023-01-13T17:11:27.340Z,6.90
2023-01-13T17:13:31.185Z,6.91
2023-01-13T17:15:35.850Z,6.93
2023-01-13T17:17:40.177Z,6.97
2023-01-13T17:19:44.064Z,6.99
2023-01-13T17:21:47.711Z,7.01
2023-01-13T17:23:52.922Z,7.02
2023-01-13T17:25:56.544Z,7.06
2023-01-13T17:28:00.427Z,7.06
2023-01-13T17:30:04.750Z,7.07
2023-01-13T17:32:08.330Z,7.08
2023-01-13T17:34:13.338Z,7.07
2023-01-13T17:36:16.712Z,7.07
2023-01-13T17:38:20.914Z,7.09
2023-01-13T17:40:26.275Z,7.09
2023-01-13T17:42:29.899Z,7.09
2023-01-13T17:44:33.721Z,7.11
2023-01-13T17:46:37.414Z,7.11
2023-01-13T17:48:41.307Z,7.11
2023-01-13T17:50:48.611Z,7.09
2023-01-13T17:52:52.121Z,7.09
2023-01-13T17:54:55.730Z,7.08
2023-01-13T17:57:00.673Z,7.09
2023-01-13T17:59:04.149Z,7.09
2023-01-13T18:01:12.383Z,7.10
2023-01-13T18:03:16.460Z,7.11
2023-01-13T18:05:20.112Z,7.12
2023-01-13T18:07:23.633Z,7.12
2023-01-13T18:09:27.263Z,7.12
2023-01-13T18:11:30.888Z,7.13
2023-01-13T18:13:36.727Z,7.13
2023-01-13T18:15:40.132Z,7.14
2023-01-13T18:17:43.651Z,7.14
2023-01-13T18:20:05.979Z,7.15
2023-01-13T18:22:31.101Z,7.15
2023-01-13T18:24:52.042Z,7.11
2023-01-13T18:27:12.728Z,7.10
2023-01-13T18:29:18.669Z,7.09
2023-01-13T18:31:22.333Z,7.09
2023-01-13T18:33:26.226Z,7.08
2023-01-13T18:35:30.466Z,7.09
2023-01-13T18:37:36.153Z,7.09
2023-01-13T18:39:39.849Z,7.11
2023-01-13T18:42:00.827Z,7.12
2023-01-13T18:44:04.588Z,7.12
2023-01-13T18:46:09.648Z,7.11
2023-01-13T18:48:12.882Z,7.08
2023-01-13T18:50:17.578Z,7.02
2023-01-13T18:52:22.030Z,6.94
2023-01-13T18:54:25.999Z,6.87
2023-01-13T18:56:31.392Z,6.80
2023-01-13T18:58:35.624Z,6.75
2023-01-13T19:00:40.360Z,6.76
2023-01-13T19:02:47.649Z,6.73
2023-01-13T19:04:54.136Z,6.66
2023-01-13T19:07:01.142Z,6.66
2023-01-13T19:09:08.924Z,6.65
2023-01-13T19:11:12.610Z,6.62
2023-01-13T19:13:17.191Z,6.61
2023-01-13T19:15:21.179Z,6.63
2023-01-13T19:17:26.511Z,6.65
2023-01-13T19:19:31.600Z,6.68
2023-01-13T19:21:35.463Z,6.73
2023-01-13T19:23:39.001Z,6.80
2023-01-13T19:25:42.970Z,6.85
2023-01-13T19:27:46.751Z,6.93
2023-01-13T19:29:53.743Z,7.01
2023-01-13T19:31:57.206Z,7.08
2023-01-13T19:34:01.207Z,7.18
2023-01-13T19:36:07.983Z,7.23
2023-01-13T19:38:11.673Z,7.28
2023-01-13T19:40:16.372Z,7.29
2023-01-13T19:42:38.012Z,7.33
2023-01-13T19:44:59.125Z,7.34
2023-01-13T19:47:04.142Z,7.36
2023-01-13T19:49:08.548Z,7.38
2023-01-13T19:51:14.850Z,7.39
2023-01-13T19:53:19.503Z,7.40
2023-01-13T19:55:23.146Z,7.42
2023-01-13T19:57:27.413Z,7.42
2023-01-13T19:59:32.928Z,7.42
2023-01-13T20:01:40.899Z,7.43
2023-01-13T20:03:46.176Z,7.42
2023-01-13T20:05:50.266Z,7.41
2023-01-13T20:07:55.958Z,7.41
2023-01-13T20:10:01.859Z,7.42
2023-01-13T20:12:08.783Z,7.42
2023-01-13T20:14:13.792Z,7.41
2023-01-13T20:16:17.430Z,7.44
2023-01-13T20:18:21.317Z,7.46
2023-01-13T20:20:26.628Z,7.48
2023-01-13T20:22:30.311Z,7.50
2023-01-13T20:24:35.708Z,7.53
2023-01-13T20:26:40.127Z,7.56
2023-01-13T20:28:44.210Z,7.57
2023-01-13T20:30:49.541Z,7.60
2023-01-13T20:32:53.594Z,7.63
2023-01-13T20:34:57.288Z,7.66
2023-01-13T20:37:01.604Z,7.69
2023-01-13T20:39:08.439Z,7.70
2023-01-13T20:41:27.323Z,7.73
2023-01-13T20:43:30.797Z,7.75
2023-01-13T20:45:34.657Z,7.78
2023-01-13T20:47:38.627Z,7.81
2023-01-13T20:49:42.788Z,7.82
2023-01-13T20:51:46.414Z,7.84
2023-01-13T20:53:50.223Z,7.86
2023-01-13T20:55:54.091Z,7.88
2023-01-13T20:57:59.324Z,7.92
2023-01-13T21:00:04.683Z,7.95
2023-01-13T21:02:12.218Z,7.96
2023-01-13T21:04:16.157Z,8.01
2023-01-13T21:06:20.646Z,8.04
2023-01-13T21:08:24.471Z,8.07
2023-01-13T21:10:28.214Z,8.09
2023-01-13T21:12:49.332Z,8.12
2023-01-13T21:15:12.027Z,8.16
2023-01-13T21:17:39.918Z,8.21
2023-01-13T21:19:42.790Z,8.25
2023-01-13T21:21:46.915Z,8.30
2023-01-13T21:23:53.238Z,8.33
2023-01-13T21:25:56.751Z,8.36
2023-01-13T21:28:05.647Z,8.38
2023-01-13T21:30:15.184Z,8.40
2023-01-13T21:32:18.934Z,8.42
2023-01-13T21:34:22.545Z,8.43
2023-01-13T21:36:27.257Z,8.44
2023-01-13T21:38:30.867Z,8.46
2023-01-13T21:40:35.336Z,8.46
2023-01-13T21:42:58.918Z,8.46
2023-01-13T21:45:20.435Z,8.46
2023-01-13T21:47:42.886Z,8.46
2023-01-13T21:49:46.963Z,8.48
2023-01-13T21:51:50.738Z,8.48
2023-01-13T21:53:55.021Z,8.46
2023-01-13T21:55:58.750Z,8.46
2023-01-13T21:58:11.862Z,8.45
2023-01-13T22:00:16.679Z,8.46
2023-01-13T22:02:31.975Z,8.49
2023-01-13T22:04:37.587Z,8.50
2023-01-13T22:06:41.342Z,8.51
2023-01-13T22:08:45.101Z,8.53
2023-01-13T22:10:58.148Z,8.55
2023-01-13T22:13:23.943Z,8.59
2023-01-13T22:15:30.826Z,8.62
2023-01-13T22:17:35.052Z,8.66
2023-01-13T22:19:42.491Z,8.70
2023-01-13T22:21:46.629Z,8.73
2023-01-13T22:23:50.819Z,8.73
2023-01-13T22:26:02.573Z,8.71
2023-01-13T22:28:08.817Z,8.70
2023-01-13T22:30:17.814Z,8.69
2023-01-13T22:32:23.037Z,8.68
2023-01-13T22:34:27.155Z,8.64
2023-01-13T22:36:32.162Z,8.63
2023-01-13T22:38:35.717Z,8.61
2023-01-13T22:40:39.493Z,8.59
2023-01-13T22:42:44.317Z,8.58
2023-01-13T22:44:47.990Z,8.58
2023-01-13T22:46:51.307Z,8.56
2023-01-13T22:48:56.035Z,8.56
2023-01-13T22:51:06.325Z,8.56
2023-01-13T22:53:11.512Z,8.55
2023-01-13T22:55:15.862Z,8.55
2023-01-13T22:57:19.746Z,8.54
2023-01-13T22:59:24.044Z,8.54
2023-01-13T23:01:29.629Z,8.55
2023-01-13T23:03:33.498Z,8.53
2023-01-13T23:05:37.712Z,8.51
2023-01-13T23:07:41.533Z,8.50
2023-01-13T23:09:46.647Z,8.47
2023-01-13T23:11:51.609Z,8.44
2023-01-13T23:14:00.625Z,8.40
2023-01-13T23:16:06.146Z,8.38
2023-01-13T23:18:11.006Z,8.36
2023-01-13T23:20:16.209Z,8.34
2023-01-13T23:22:21.353Z,8.33
2023-01-13T23:24:28.515Z,8.32
2023-01-13T23:26:37.816Z,8.33
2023-01-13T23:28:45.977Z,8.33
2023-01-13T23:30:50.387Z,8.31
2023-01-13T23:32:54.697Z,8.32
2023-01-13T23:34:59.379Z,8.31
2023-01-13T23:37:04.261Z,8.29
2023-01-13T23:39:09.035Z,8.29
2023-01-13T23:41:17.205Z,8.28
2023-01-13T23:43:23.374Z,8.28
2023-01-13T23:45:30.535Z,8.26
2023-01-13T23:47:34.789Z,8.25
2023-01-13T23:49:39.283Z,8.24
2023-01-13T23:51:43.465Z,8.21
2023-01-13T23:53:49.283Z,8.15
2023-01-13T23:55:58.046Z,8.09
2023-01-13T23:58:02.340Z,8.06
